sensor_id;sensor_type;location;lat;lon;timestamp;pressure;altitude;pressure_sealevel;temperature;humidity
13952;BME280;39535;52.192;9.886;2023-02-28T00:01:09;102460.00;;;1.64;72.19
13952;BME280;39535;52.192;9.886;2023-02-28T00:03:35;102463.69;;;1.69;72.60
13952;BME280;39535;52.192;9.886;2023-02-28T00:06:02;102454.06;;;1.65;72.92
13952;BME280;39535;52.192;9.886;2023-02-28T00:08:29;102444.16;;;1.56;73.52
13952;BME280;39535;52.192;9.886;2023-02-28T00:10:55;102429.47;;;1.54;74.41
13952;BME280;39535;52.192;9.886;2023-02-28T00:13:23;102407.69;;;1.47;75.60
13952;BME280;39535;52.192;9.886;2023-02-28T00:15:58;102389.03;;;1.51;75.26
13952;BME280;39535;52.192;9.886;2023-02-28T00:18:24;102368.53;;;1.53;74.97
13952;BME280;39535;52.192;9.886;2023-02-28T00:20:51;102366.75;;;1.52;75.61
13952;BME280;39535;52.192;9.886;2023-02-28T00:23:17;102361.47;;;1.49;75.07
13952;BME280;39535;52.192;9.886;2023-02-28T00:25:44;102355.41;;;1.48;75.66
13952;BME280;39535;52.192;9.886;2023-02-28T00:28:10;102354.53;;;1.48;75.44
13952;BME280;39535;52.192;9.886;2023-02-28T00:30:38;102356.59;;;1.37;74.40
13952;BME280;39535;52.192;9.886;2023-02-28T00:33:05;102366.06;;;1.38;74.91
13952;BME280;39535;52.192;9.886;2023-02-28T00:35:31;102372.91;;;1.37;74.72
13952;BME280;39535;52.192;9.886;2023-02-28T00:37:57;102369.47;;;1.37;74.13
13952;BME280;39535;52.192;9.886;2023-02-28T00:40:24;102373.56;;;1.33;74.20
13952;BME280;39535;52.192;9.886;2023-02-28T00:42:50;102376.06;;;1.32;73.77
13952;BME280;39535;52.192;9.886;2023-02-28T00:45:17;102380.88;;;1.26;74.11
13952;BME280;39535;52.192;9.886;2023-02-28T00:47:44;102381.38;;;1.18;74.48
13952;BME280;39535;52.192;9.886;2023-02-28T00:50:11;102381.22;;;1.15;74.38
13952;BME280;39535;52.192;9.886;2023-02-28T00:52:38;102386.28;;;1.14;74.59
13952;BME280;39535;52.192;9.886;2023-02-28T00:55:05;102391.13;;;1.08;73.70
13952;BME280;39535;52.192;9.886;2023-02-28T00:57:31;102391.91;;;1.07;74.23
13952;BME280;39535;52.192;9.886;2023-02-28T00:59:57;102405.50;;;1.04;73.09
13952;BME280;39535;52.192;9.886;2023-02-28T01:02:24;102418.19;;;1.01;73.35
13952;BME280;39535;52.192;9.886;2023-02-28T01:04:51;102424.16;;;1.00;72.61
13952;BME280;39535;52.192;9.886;2023-02-28T01:07:18;102435.31;;;1.01;73.02
13952;BME280;39535;52.192;9.886;2023-02-28T01:09:44;102445.38;;;0.96;72.62
13952;BME280;39535;52.192;9.886;2023-02-28T01:12:10;102456.31;;;0.92;72.12
13952;BME280;39535;52.192;9.886;2023-02-28T01:14:37;102476.28;;;0.81;71.96
13952;BME280;39535;52.192;9.886;2023-02-28T01:17:03;102486.75;;;0.84;72.22
13952;BME280;39535;52.192;9.886;2023-02-28T01:19:30;102480.78;;;0.85;72.23
13952;BME280;39535;52.192;9.886;2023-02-28T01:22:00;102473.00;;;0.84;72.18
13952;BME280;39535;52.192;9.886;2023-02-28T01:24:26;102477.25;;;0.83;73.50
13952;BME280;39535;52.192;9.886;2023-02-28T01:26:53;102464.06;;;0.77;74.37
13952;BME280;39535;52.192;9.886;2023-02-28T01:29:19;102448.63;;;0.77;74.81
13952;BME280;39535;52.192;9.886;2023-02-28T01:31:45;102444.88;;;0.70;73.47
13952;BME280;39535;52.192;9.886;2023-02-28T01:34:12;102438.13;;;0.72;73.51
13952;BME280;39535;52.192;9.886;2023-02-28T01:36:38;102433.94;;;0.74;74.38
13952;BME280;39535;52.192;9.886;2023-02-28T01:39:06;102425.28;;;0.72;74.27
13952;BME280;39535;52.192;9.886;2023-02-28T01:41:33;102409.28;;;0.62;74.99
13952;BME280;39535;52.192;9.886;2023-02-28T01:44:04;102391.34;;;0.63;74.25
13952;BME280;39535;52.192;9.886;2023-02-28T01:46:32;102379.56;;;0.67;74.58
13952;BME280;39535;52.192;9.886;2023-02-28T01:49:04;102378.91;;;0.71;74.27
13952;BME280;39535;52.192;9.886;2023-02-28T01:51:34;102382.38;;;0.71;74.35
13952;BME280;39535;52.192;9.886;2023-02-28T01:54:07;102387.50;;;0.71;73.84
13952;BME280;39535;52.192;9.886;2023-02-28T01:56:43;102377.88;;;0.67;73.84
13952;BME280;39535;52.192;9.886;2023-02-28T01:59:12;102387.56;;;0.40;74.04
13952;BME280;39535;52.192;9.886;2023-02-28T02:01:40;102389.19;;;0.38;74.66
13952;BME280;39535;52.192;9.886;2023-02-28T02:04:06;102382.69;;;0.45;75.14
13952;BME280;39535;52.192;9.886;2023-02-28T02:06:35;102368.13;;;0.45;74.72
13952;BME280;39535;52.192;9.886;2023-02-28T02:09:03;102357.78;;;0.44;74.48
13952;BME280;39535;52.192;9.886;2023-02-28T02:11:31;102364.78;;;0.46;74.70
13952;BME280;39535;52.192;9.886;2023-02-28T02:14:11;102362.91;;;0.44;74.20
13952;BME280;39535;52.192;9.886;2023-02-28T02:16:49;102367.09;;;0.42;73.29
13952;BME280;39535;52.192;9.886;2023-02-28T02:19:38;102392.13;;;0.29;72.12
13952;BME280;39535;52.192;9.886;2023-02-28T02:22:34;102406.25;;;0.37;72.90
13952;BME280;39535;52.192;9.886;2023-02-28T02:25:18;102423.03;;;0.31;71.94
13952;BME280;39535;52.192;9.886;2023-02-28T02:28:11;102430.66;;;0.29;72.89
13952;BME280;39535;52.192;9.886;2023-02-28T02:31:10;102422.78;;;0.26;73.08
13952;BME280;39535;52.192;9.886;2023-02-28T02:34:03;102429.97;;;0.17;72.46
13952;BME280;39535;52.192;9.886;2023-02-28T02:36:35;102430.16;;;0.20;72.26
13952;BME280;39535;52.192;9.886;2023-02-28T02:39:09;102427.31;;;0.15;71.25
13952;BME280;39535;52.192;9.886;2023-02-28T02:41:41;102445.47;;;0.18;70.81
13952;BME280;39535;52.192;9.886;2023-02-28T02:44:19;102464.41;;;0.21;70.99
13952;BME280;39535;52.192;9.886;2023-02-28T02:46:48;102464.41;;;0.21;72.22
13952;BME280;39535;52.192;9.886;2023-02-28T02:49:20;102456.53;;;0.17;72.85
13952;BME280;39535;52.192;9.886;2023-02-28T02:51:48;102435.44;;;0.23;72.98
13952;BME280;39535;52.192;9.886;2023-02-28T02:54:18;102442.09;;;0.19;72.50
13952;BME280;39535;52.192;9.886;2023-02-28T02:56:47;102435.41;;;0.07;72.95
13952;BME280;39535;52.192;9.886;2023-02-28T02:59:16;102437.44;;;0.12;72.57
13952;BME280;39535;52.192;9.886;2023-02-28T03:01:48;102434.84;;;0.12;73.49
13952;BME280;39535;52.192;9.886;2023-02-28T03:04:19;102434.00;;;-0.03;74.11
13952;BME280;39535;52.192;9.886;2023-02-28T03:06:47;102425.25;;;-0.36;74.06
13952;BME280;39535;52.192;9.886;2023-02-28T03:09:13;102402.84;;;-0.54;75.25
13952;BME280;39535;52.192;9.886;2023-02-28T03:11:41;102379.53;;;-0.58;76.46
13952;BME280;39535;52.192;9.886;2023-02-28T03:14:22;102348.31;;;-0.51;76.85
13952;BME280;39535;52.192;9.886;2023-02-28T03:17:02;102319.72;;;-0.43;77.13
13952;BME280;39535;52.192;9.886;2023-02-28T03:19:41;102296.88;;;-0.38;76.83
13952;BME280;39535;52.192;9.886;2023-02-28T03:22:16;102291.47;;;-0.28;76.44
13952;BME280;39535;52.192;9.886;2023-02-28T03:24:50;102287.66;;;-0.19;76.66
13952;BME280;39535;52.192;9.886;2023-02-28T03:27:24;102290.38;;;-0.16;76.87
13952;BME280;39535;52.192;9.886;2023-02-28T03:29:58;102284.59;;;-0.12;76.69
13952;BME280;39535;52.192;9.886;2023-02-28T03:32:28;102269.91;;;-0.15;77.62
13952;BME280;39535;52.192;9.886;2023-02-28T03:35:02;102264.28;;;-0.24;76.54
13952;BME280;39535;52.192;9.886;2023-02-28T03:37:32;102261.81;;;-0.23;76.61
13952;BME280;39535;52.192;9.886;2023-02-28T03:40:04;102269.75;;;-0.18;77.13
13952;BME280;39535;52.192;9.886;2023-02-28T03:42:36;102258.06;;;-0.13;77.52
13952;BME280;39535;52.192;9.886;2023-02-28T03:45:08;102247.97;;;-0.10;77.85
13952;BME280;39535;52.192;9.886;2023-02-28T03:47:39;102246.41;;;-0.06;77.56
13952;BME280;39535;52.192;9.886;2023-02-28T03:50:13;102234.44;;;-0.22;78.78
13952;BME280;39535;52.192;9.886;2023-02-28T03:52:47;102211.75;;;-0.31;79.92
13952;BME280;39535;52.192;9.886;2023-02-28T03:55:16;102190.78;;;-0.24;79.35
13952;BME280;39535;52.192;9.886;2023-02-28T03:57:51;102183.63;;;-0.29;80.07
13952;BME280;39535;52.192;9.886;2023-02-28T04:00:28;102164.75;;;-0.30;80.15
13952;BME280;39535;52.192;9.886;2023-02-28T04:02:58;102148.25;;;-0.35;80.56
13952;BME280;39535;52.192;9.886;2023-02-28T04:05:26;102144.81;;;-0.35;80.66
13952;BME280;39535;52.192;9.886;2023-02-28T04:07:53;102142.06;;;-0.38;80.84
13952;BME280;39535;52.192;9.886;2023-02-28T04:10:20;102141.50;;;-0.49;81.16
13952;BME280;39535;52.192;9.886;2023-02-28T04:12:46;102135.09;;;-0.41;80.65
13952;BME280;39535;52.192;9.886;2023-02-28T04:15:13;102134.47;;;-0.37;80.79
13952;BME280;39535;52.192;9.886;2023-02-28T04:17:39;102140.69;;;-0.32;80.02
13952;BME280;39535;52.192;9.886;2023-02-28T04:20:06;102153.72;;;-0.29;79.43
13952;BME280;39535;52.192;9.886;2023-02-28T04:22:36;102174.56;;;-0.23;78.50
13952;BME280;39535;52.192;9.886;2023-02-28T04:25:04;102200.41;;;-0.19;77.44
13952;BME280;39535;52.192;9.886;2023-02-28T04:27:31;102220.00;;;-0.20;77.48
13952;BME280;39535;52.192;9.886;2023-02-28T04:29:57;102224.28;;;-0.21;78.01
13952;BME280;39535;52.192;9.886;2023-02-28T04:32:24;102243.56;;;-0.44;79.22
13952;BME280;39535;52.192;9.886;2023-02-28T04:34:50;102227.91;;;-0.48;79.40
13952;BME280;39535;52.192;9.886;2023-02-28T04:37:16;102201.81;;;-0.41;79.63
13952;BME280;39535;52.192;9.886;2023-02-28T04:39:44;102204.72;;;-0.50;79.54
13952;BME280;39535;52.192;9.886;2023-02-28T04:42:11;102193.44;;;-0.53;79.47
13952;BME280;39535;52.192;9.886;2023-02-28T04:44:38;102211.03;;;-0.60;79.86
13952;BME280;39535;52.192;9.886;2023-02-28T04:47:04;102205.84;;;-0.61;79.29
13952;BME280;39535;52.192;9.886;2023-02-28T04:49:31;102212.56;;;-0.63;80.16
13952;BME280;39535;52.192;9.886;2023-02-28T04:51:57;102204.06;;;-0.62;79.74
13952;BME280;39535;52.192;9.886;2023-02-28T04:54:23;102198.94;;;-0.62;80.38
13952;BME280;39535;52.192;9.886;2023-02-28T04:56:51;102198.16;;;-0.61;80.69
13952;BME280;39535;52.192;9.886;2023-02-28T04:59:17;102180.34;;;-0.58;81.05
13952;BME280;39535;52.192;9.886;2023-02-28T05:01:46;102158.75;;;-0.47;81.40
13952;BME280;39535;52.192;9.886;2023-02-28T05:04:13;102145.81;;;-0.48;81.67
13952;BME280;39535;52.192;9.886;2023-02-28T05:06:39;102152.97;;;-0.43;81.49
13952;BME280;39535;52.192;9.886;2023-02-28T05:09:05;102139.28;;;-0.43;82.18
13952;BME280;39535;52.192;9.886;2023-02-28T05:11:33;102134.47;;;-0.37;81.58
13952;BME280;39535;52.192;9.886;2023-02-28T05:14:01;102133.00;;;-0.32;81.87
13952;BME280;39535;52.192;9.886;2023-02-28T05:16:28;102127.19;;;-0.29;82.76
13952;BME280;39535;52.192;9.886;2023-02-28T05:18:54;102115.31;;;-0.27;82.64
13952;BME280;39535;52.192;9.886;2023-02-28T05:21:24;102106.22;;;-0.21;82.54
13952;BME280;39535;52.192;9.886;2023-02-28T05:23:51;102108.16;;;-0.16;83.19
13952;BME280;39535;52.192;9.886;2023-02-28T05:26:18;102096.38;;;-0.13;83.03
13952;BME280;39535;52.192;9.886;2023-02-28T05:28:44;102086.91;;;-0.14;82.80
13952;BME280;39535;52.192;9.886;2023-02-28T05:31:12;102086.19;;;-0.11;82.99
13952;BME280;39535;52.192;9.886;2023-02-28T05:33:39;102090.59;;;-0.09;82.75
13952;BME280;39535;52.192;9.886;2023-02-28T05:36:06;102091.22;;;-0.13;82.58
13952;BME280;39535;52.192;9.886;2023-02-28T05:38:33;102102.69;;;-0.06;81.68
13952;BME280;39535;52.192;9.886;2023-02-28T05:40:59;102125.25;;;-0.17;81.89
13952;BME280;39535;52.192;9.886;2023-02-28T05:43:25;102131.56;;;-0.10;81.04
13952;BME280;39535;52.192;9.886;2023-02-28T05:45:52;102156.41;;;-0.42;79.19
13952;BME280;39535;52.192;9.886;2023-02-28T05:48:19;102196.28;;;-0.64;79.34
13952;BME280;39535;52.192;9.886;2023-02-28T05:50:46;102209.03;;;-0.65;79.68
13952;BME280;39535;52.192;9.886;2023-02-28T05:53:12;102204.94;;;-0.62;79.71
13952;BME280;39535;52.192;9.886;2023-02-28T05:55:38;102210.59;;;-0.52;80.05
13952;BME280;39535;52.192;9.886;2023-02-28T05:58:06;102207.81;;;-0.41;80.02
13952;BME280;39535;52.192;9.886;2023-02-28T06:00:32;102224.97;;;-0.39;78.83
13952;BME280;39535;52.192;9.886;2023-02-28T06:02:59;102245.41;;;-0.41;77.92
13952;BME280;39535;52.192;9.886;2023-02-28T06:05:28;102269.81;;;-0.79;78.37
13952;BME280;39535;52.192;9.886;2023-02-28T06:07:54;102277.81;;;-1.17;80.02
13952;BME280;39535;52.192;9.886;2023-02-28T06:10:21;102240.09;;;-1.35;81.77
13952;BME280;39535;52.192;9.886;2023-02-28T06:12:47;102199.28;;;-1.47;82.60
13952;BME280;39535;52.192;9.886;2023-02-28T06:15:14;102180.81;;;-1.41;82.70
13952;BME280;39535;52.192;9.886;2023-02-28T06:17:42;102165.91;;;-1.48;82.81
13952;BME280;39535;52.192;9.886;2023-02-28T06:20:10;102158.13;;;-1.35;82.90
13952;BME280;39535;52.192;9.886;2023-02-28T06:22:39;102148.41;;;-1.26;82.93
13952;BME280;39535;52.192;9.886;2023-02-28T06:25:07;102149.91;;;-1.14;83.10
13952;BME280;39535;52.192;9.886;2023-02-28T06:27:33;102138.66;;;-1.02;83.21
13952;BME280;39535;52.192;9.886;2023-02-28T06:30:00;102152.53;;;-0.98;82.16
13952;BME280;39535;52.192;9.886;2023-02-28T06:32:26;102156.56;;;-0.87;81.71
13952;BME280;39535;52.192;9.886;2023-02-28T06:34:53;102163.63;;;-0.83;81.92
13952;BME280;39535;52.192;9.886;2023-02-28T06:37:19;102177.75;;;-0.74;81.62
13952;BME280;39535;52.192;9.886;2023-02-28T06:39:47;102188.53;;;-0.80;81.83
13952;BME280;39535;52.192;9.886;2023-02-28T06:42:13;102186.16;;;-0.77;82.16
13952;BME280;39535;52.192;9.886;2023-02-28T06:44:39;102189.50;;;-0.78;82.21
13952;BME280;39535;52.192;9.886;2023-02-28T06:47:08;102187.66;;;-0.81;82.61
13952;BME280;39535;52.192;9.886;2023-02-28T06:49:35;102190.00;;;-0.85;82.90
13952;BME280;39535;52.192;9.886;2023-02-28T06:52:02;102184.06;;;-0.84;82.97
13952;BME280;39535;52.192;9.886;2023-02-28T06:54:28;102183.28;;;-0.83;83.10
13952;BME280;39535;52.192;9.886;2023-02-28T06:56:57;102173.59;;;-0.72;83.21
13952;BME280;39535;52.192;9.886;2023-02-28T06:59:23;102176.94;;;-0.73;82.82
13952;BME280;39535;52.192;9.886;2023-02-28T07:01:50;102196.28;;;-0.64;82.33
13952;BME280;39535;52.192;9.886;2023-02-28T07:04:17;102201.41;;;-0.64;81.78
13952;BME280;39535;52.192;9.886;2023-02-28T07:06:43;102223.41;;;-0.52;81.27
13952;BME280;39535;52.192;9.886;2023-02-28T07:09:09;102234.09;;;-0.45;81.46
13952;BME280;39535;52.192;9.886;2023-02-28T07:11:36;102242.75;;;-0.43;80.90
13952;BME280;39535;52.192;9.886;2023-02-28T07:14:04;102246.38;;;-0.39;81.45
13952;BME280;39535;52.192;9.886;2023-02-28T07:16:30;102249.91;;;-0.37;81.21
13952;BME280;39535;52.192;9.886;2023-02-28T07:18:56;102261.78;;;-0.39;80.50
13952;BME280;39535;52.192;9.886;2023-02-28T07:21:23;102268.28;;;-0.29;80.89
13952;BME280;39535;52.192;9.886;2023-02-28T07:23:49;102283.06;;;-0.25;80.40
13952;BME280;39535;52.192;9.886;2023-02-28T07:26:18;102278.88;;;-0.23;80.79
13952;BME280;39535;52.192;9.886;2023-02-28T07:28:46;102291.88;;;-0.20;80.78
13952;BME280;39535;52.192;9.886;2023-02-28T07:31:15;102290.44;;;-0.15;80.65
13952;BME280;39535;52.192;9.886;2023-02-28T07:33:42;102288.84;;;-0.13;81.05
13952;BME280;39535;52.192;9.886;2023-02-28T07:36:11;102289.72;;;-0.12;81.82
13952;BME280;39535;52.192;9.886;2023-02-28T07:38:41;102273.88;;;-0.05;80.24
13952;BME280;39535;52.192;9.886;2023-02-28T07:41:07;102293.59;;;-0.04;79.93
13952;BME280;39535;52.192;9.886;2023-02-28T07:43:34;102320.81;;;-0.08;79.91
13952;BME280;39535;52.192;9.886;2023-02-28T07:46:02;102316.88;;;-0.01;80.71
13952;BME280;39535;52.192;9.886;2023-02-28T07:48:30;102307.81;;;0.06;80.19
13952;BME280;39535;52.192;9.886;2023-02-28T07:50:56;102311.34;;;0.08;79.67
13952;BME280;39535;52.192;9.886;2023-02-28T07:53:22;102331.19;;;0.10;80.01
13952;BME280;39535;52.192;9.886;2023-02-28T07:55:49;102344.72;;;0.08;78.64
13952;BME280;39535;52.192;9.886;2023-02-28T07:58:15;102337.75;;;0.05;79.68
13952;BME280;39535;52.192;9.886;2023-02-28T08:00:41;102342.34;;;0.11;79.32
13952;BME280;39535;52.192;9.886;2023-02-28T08:03:08;102347.63;;;0.14;79.44
13952;BME280;39535;52.192;9.886;2023-02-28T08:05:39;102344.44;;;0.18;79.76
13952;BME280;39535;52.192;9.886;2023-02-28T08:08:06;102338.66;;;0.22;80.24
13952;BME280;39535;52.192;9.886;2023-02-28T08:10:32;102337.13;;;0.26;79.41
13952;BME280;39535;52.192;9.886;2023-02-28T08:12:59;102353.25;;;0.23;78.13
13952;BME280;39535;52.192;9.886;2023-02-28T08:15:25;102358.63;;;0.28;78.50
13952;BME280;39535;52.192;9.886;2023-02-28T08:17:52;102351.13;;;0.31;78.73
13952;BME280;39535;52.192;9.886;2023-02-28T08:20:18;102364.81;;;0.31;77.95
13952;BME280;39535;52.192;9.886;2023-02-28T08:22:46;102374.78;;;0.42;78.05
13952;BME280;39535;52.192;9.886;2023-02-28T08:25:12;102388.59;;;0.44;77.63
13952;BME280;39535;52.192;9.886;2023-02-28T08:27:39;102403.56;;;0.51;77.10
13952;BME280;39535;52.192;9.886;2023-02-28T08:30:07;102413.75;;;0.49;77.38
13952;BME280;39535;52.192;9.886;2023-02-28T08:32:34;102414.72;;;0.51;77.56
13952;BME280;39535;52.192;9.886;2023-02-28T08:35:00;102409.34;;;0.47;77.41
13952;BME280;39535;52.192;9.886;2023-02-28T08:37:28;102408.69;;;0.51;78.38
13952;BME280;39535;52.192;9.886;2023-02-28T08:39:56;102394.56;;;0.59;78.24
13952;BME280;39535;52.192;9.886;2023-02-28T08:42:22;102411.84;;;0.62;77.95
13952;BME280;39535;52.192;9.886;2023-02-28T08:44:48;102405.25;;;0.67;78.26
13952;BME280;39535;52.192;9.886;2023-02-28T08:47:15;102397.78;;;0.71;78.72
13952;BME280;39535;52.192;9.886;2023-02-28T08:49:41;102398.19;;;0.79;78.52
13952;BME280;39535;52.192;9.886;2023-02-28T08:52:08;102411.88;;;0.78;77.54
13952;BME280;39535;52.192;9.886;2023-02-28T08:54:35;102421.19;;;0.76;77.48
13952;BME280;39535;52.192;9.886;2023-02-28T08:57:03;102416.19;;;0.79;77.65
13952;BME280;39535;52.192;9.886;2023-02-28T08:59:29;102416.28;;;0.81;77.63
13952;BME280;39535;52.192;9.886;2023-02-28T09:01:56;102425.03;;;0.84;76.77
13952;BME280;39535;52.192;9.886;2023-02-28T09:04:22;102436.84;;;0.81;75.95
13952;BME280;39535;52.192;9.886;2023-02-28T09:06:48;102449.31;;;0.89;76.25
13952;BME280;39535;52.192;9.886;2023-02-28T09:09:15;102459.28;;;0.99;76.80
13952;BME280;39535;52.192;9.886;2023-02-28T09:11:41;102450.91;;;1.04;76.09
13952;BME280;39535;52.192;9.886;2023-02-28T09:14:09;102458.13;;;1.11;76.79
13952;BME280;39535;52.192;9.886;2023-02-28T09:16:35;102472.69;;;1.10;76.85
13952;BME280;39535;52.192;9.886;2023-02-28T09:19:02;102464.09;;;1.10;77.43
13952;BME280;39535;52.192;9.886;2023-02-28T09:21:28;102458.41;;;1.15;77.13
13952;BME280;39535;52.192;9.886;2023-02-28T09:23:54;102463.03;;;1.23;76.63
13952;BME280;39535;52.192;9.886;2023-02-28T09:26:23;102463.63;;;1.17;76.84
13952;BME280;39535;52.192;9.886;2023-02-28T09:28:51;102461.28;;;1.22;76.67
13952;BME280;39535;52.192;9.886;2023-02-28T09:31:20;102461.28;;;1.22;77.04
13952;BME280;39535;52.192;9.886;2023-02-28T09:33:47;102462.34;;;1.25;76.05
13952;BME280;39535;52.192;9.886;2023-02-28T09:36:13;102476.47;;;1.33;75.79
13952;BME280;39535;52.192;9.886;2023-02-28T09:38:40;102468.97;;;1.38;76.87
13952;BME280;39535;52.192;9.886;2023-02-28T09:41:11;102467.22;;;1.37;76.92
13952;BME280;39535;52.192;9.886;2023-02-28T09:43:43;102460.88;;;1.47;75.72
13952;BME280;39535;52.192;9.886;2023-02-28T09:46:20;102481.50;;;1.48;74.89
13952;BME280;39535;52.192;9.886;2023-02-28T09:48:48;102483.38;;;1.51;74.94
13952;BME280;39535;52.192;9.886;2023-02-28T09:51:27;102501.53;;;1.54;75.87
13952;BME280;39535;52.192;9.886;2023-02-28T09:53:55;102516.81;;;1.51;75.70
13952;BME280;39535;52.192;9.886;2023-02-28T09:56:24;102507.25;;;1.48;75.61
13952;BME280;39535;52.192;9.886;2023-02-28T09:58:54;102515.44;;;1.57;74.62
13952;BME280;39535;52.192;9.886;2023-02-28T10:01:27;102536.78;;;1.55;74.41
13952;BME280;39535;52.192;9.886;2023-02-28T10:03:59;102551.31;;;1.54;73.84
13952;BME280;39535;52.192;9.886;2023-02-28T10:06:29;102552.75;;;1.66;73.03
13952;BME280;39535;52.192;9.886;2023-02-28T10:09:00;102575.13;;;1.67;73.39
13952;BME280;39535;52.192;9.886;2023-02-28T10:11:28;102579.47;;;1.68;73.58
13952;BME280;39535;52.192;9.886;2023-02-28T10:13:59;102582.75;;;1.82;72.44
13952;BME280;39535;52.192;9.886;2023-02-28T10:16:34;102604.63;;;1.90;71.71
13952;BME280;39535;52.192;9.886;2023-02-28T10:19:04;102616.50;;;2.04;78.13
13952;BME280;39535;52.192;9.886;2023-02-28T10:21:35;102344.22;;;2.39;87.92
13952;BME280;39535;52.192;9.886;2023-02-28T10:24:08;102310.66;;;2.37;78.77
13952;BME280;39535;52.192;9.886;2023-02-28T10:26:37;102408.59;;;2.37;73.41
13952;BME280;39535;52.192;9.886;2023-02-28T10:29:03;102489.22;;;2.35;71.93
13952;BME280;39535;52.192;9.886;2023-02-28T10:31:31;102499.75;;;2.39;76.00
13952;BME280;39535;52.192;9.886;2023-02-28T10:33:57;102521.03;;;2.35;72.41
13952;BME280;39535;52.192;9.886;2023-02-28T10:36:24;102494.88;;;2.46;78.57
13952;BME280;39535;52.192;9.886;2023-02-28T10:38:50;102418.19;;;2.59;79.22
13952;BME280;39535;52.192;9.886;2023-02-28T10:41:27;102369.09;;;2.76;79.09
13952;BME280;39535;52.192;9.886;2023-02-28T10:44:12;102449.22;;;2.81;73.62
13952;BME280;39535;52.192;9.886;2023-02-28T10:46:41;102429.03;;;2.90;74.27
13952;BME280;39535;52.192;9.886;2023-02-28T10:49:14;102478.31;;;2.96;75.16
13952;BME280;39535;52.192;9.886;2023-02-28T10:51:43;102522.84;;;2.92;71.33
13952;BME280;39535;52.192;9.886;2023-02-28T10:54:15;102586.41;;;2.91;72.33
13952;BME280;39535;52.192;9.886;2023-02-28T10:56:42;102580.59;;;2.95;72.06
13952;BME280;39535;52.192;9.886;2023-02-28T10:59:26;102558.22;;;3.14;75.03
13952;BME280;39535;52.192;9.886;2023-02-28T11:01:54;102557.41;;;3.15;71.25
13952;BME280;39535;52.192;9.886;2023-02-28T11:04:33;102607.69;;;3.23;70.71
13952;BME280;39535;52.192;9.886;2023-02-28T11:07:04;102643.16;;;3.27;68.69
13952;BME280;39535;52.192;9.886;2023-02-28T11:09:33;102694.97;;;3.32;69.51
13952;BME280;39535;52.192;9.886;2023-02-28T11:12:02;102702.66;;;3.30;67.59
13952;BME280;39535;52.192;9.886;2023-02-28T11:14:31;102737.31;;;3.35;68.07
13952;BME280;39535;52.192;9.886;2023-02-28T11:17:13;102747.19;;;3.44;66.54
13952;BME280;39535;52.192;9.886;2023-02-28T11:19:45;102781.03;;;3.50;65.84
13952;BME280;39535;52.192;9.886;2023-02-28T11:22:18;102816.75;;;3.59;65.32
13952;BME280;39535;52.192;9.886;2023-02-28T11:24:47;102846.41;;;3.85;69.07
13952;BME280;39535;52.192;9.886;2023-02-28T11:27:37;102830.06;;;4.04;66.37
13952;BME280;39535;52.192;9.886;2023-02-28T11:30:23;102836.63;;;4.15;62.51
13952;BME280;39535;52.192;9.886;2023-02-28T11:32:51;102894.44;;;4.17;60.95
13952;BME280;39535;52.192;9.886;2023-02-28T11:35:22;102952.34;;;4.21;59.71
13952;BME280;39535;52.192;9.886;2023-02-28T11:37:49;102993.94;;;4.26;61.89
13952;BME280;39535;52.192;9.886;2023-02-28T11:40:17;102997.25;;;4.23;61.48
13952;BME280;39535;52.192;9.886;2023-02-28T11:42:51;103018.59;;;4.19;61.31
13952;BME280;39535;52.192;9.886;2023-02-28T11:45:29;103007.53;;;4.40;62.11
13952;BME280;39535;52.192;9.886;2023-02-28T11:48:08;102997.28;;;4.78;61.19
13952;BME280;39535;52.192;9.886;2023-02-28T11:50:47;102986.22;;;5.40;59.43
13952;BME280;39535;52.192;9.886;2023-02-28T11:53:22;102968.91;;;6.21;58.23
13952;BME280;39535;52.192;9.886;2023-02-28T11:55:52;103030.13;;;6.61;56.12
13952;BME280;39535;52.192;9.886;2023-02-28T11:58:37;103143.47;;;6.83;56.88
13952;BME280;39535;52.192;9.886;2023-02-28T12:01:26;103171.16;;;7.04;51.66
13952;BME280;39535;52.192;9.886;2023-02-28T12:04:14;103280.47;;;7.10;49.43
13952;BME280;39535;52.192;9.886;2023-02-28T12:06:46;103367.16;;;7.12;49.80
13952;BME280;39535;52.192;9.886;2023-02-28T12:09:33;103405.63;;;7.01;50.70
13952;BME280;39535;52.192;9.886;2023-02-28T12:12:06;103453.56;;;7.08;53.78
13952;BME280;39535;52.192;9.886;2023-02-28T12:14:52;103386.38;;;8.01;48.36
13952;BME280;39535;52.192;9.886;2023-02-28T12:17:28;103401.19;;;9.20;45.54
13952;BME280;39535;52.192;9.886;2023-02-28T12:20:05;103508.09;;;10.51;47.72
13952;BME280;39535;52.192;9.886;2023-02-28T12:22:43;103484.72;;;11.83;42.21
13952;BME280;39535;52.192;9.886;2023-02-28T12:25:43;103543.53;;;12.68;39.21
13952;BME280;39535;52.192;9.886;2023-02-28T12:28:16;103620.47;;;13.10;36.69
13952;BME280;39535;52.192;9.886;2023-02-28T12:30:50;103695.34;;;13.34;37.18
13952;BME280;39535;52.192;9.886;2023-02-28T12:33:22;103726.88;;;13.76;36.82
13952;BME280;39535;52.192;9.886;2023-02-28T12:35:54;103747.47;;;13.99;36.94
13952;BME280;39535;52.192;9.886;2023-02-28T12:38:23;103764.16;;;14.01;35.68
13952;BME280;39535;52.192;9.886;2023-02-28T12:40:54;103794.56;;;13.89;35.78
13952;BME280;39535;52.192;9.886;2023-02-28T12:43:27;103805.66;;;14.19;36.19
13952;BME280;39535;52.192;9.886;2023-02-28T12:45:59;103792.94;;;14.40;34.78
13952;BME280;39535;52.192;9.886;2023-02-28T12:48:31;103816.13;;;14.16;35.57
13952;BME280;39535;52.192;9.886;2023-02-28T12:51:05;103795.06;;;14.58;34.60
13952;BME280;39535;52.192;9.886;2023-02-28T12:53:42;103792.88;;;14.84;33.54
13952;BME280;39535;52.192;9.886;2023-02-28T12:56:16;103813.81;;;14.77;33.44
13952;BME280;39535;52.192;9.886;2023-02-28T12:58:47;103829.25;;;14.58;33.25
13952;BME280;39535;52.192;9.886;2023-02-28T13:01:31;103822.56;;;14.76;33.58
13952;BME280;39535;52.192;9.886;2023-02-28T13:04:14;103816.97;;;14.57;33.71
13952;BME280;39535;52.192;9.886;2023-02-28T13:07:05;103815.81;;;14.00;35.02
13952;BME280;39535;52.192;9.886;2023-02-28T13:09:37;103803.28;;;13.13;35.77